LHBP Airport Information

Runway Information
Runway 13L Length 12162 ft width 149 ft
Elevation 495 ft Threshold 0 ft Heading 132
Runway 31R Length 12162 ft Width 149 ft
Elevation 417 ft Threshold 0 ft Heading 312
Runway 13R Length 9875 ft width 149 ft
Elevation 450 ft Threshold 0 ft Heading 132
Runway 31L Length 9875 ft Width 149 ft
Elevation 450 ft Threshold 0 ft Heading 312
Airport Frequencies
Type ACC Name BUDAPEST A Frequency 129.7 MHZ
Type APP Name DIRECTOR Frequency 119.5 MHZ
Type APRS Name Apron Guid Frequency 122.45 MHZ
Type APRW Name Apron Guid Frequency 131.55 MHZ
Type ATIS Name ATIS Frequency 132.375 MHZ
Type CDC Name Delivery Frequency 134.55 MHZ
Type GND Name GND Frequency 121.9 MHZ
Type TWR Name TWR Frequency 118.1 MHZ
Airport Navaids
Type VOR-DME Name Budapest Frequency 117300 KHZ
Type VOR-DME Name Monor Frequency 112500 KHZ
Type NDB Name Monor Frequency 288 KHZ
Type VOR-DME Name Tapiosap Frequency 115900 KHZ
Type NDB Name Tapiosap Frequency 306 KHZ
Airport Weather Information & NOTAM
ADDS - METARS form results

(0946 UTC 19 September 2018)
Data provider http://aviationweather.gov/metar/data/
 
METAR text: LHBP 190930Z 09005KT 010V140 CAVOK 23/13 Q1022 NOSIG
Conditions at: LHBP (BUDAPEST/FERIHEG, HU) observed 0930 UTC 19 September 2018
Temperature: 23.0°C (73°F)
Dewpoint: 13.0°C (55°F) [RH = 53%]
Pressure (altimeter): 30.18 inches Hg (1022.0 mb)
Winds: from the E (90 degrees) at 6 MPH (5 knots; 2.6 m/s)
Visibility: 6 or more miles (10+ km)
Ceiling: ceiling and visibility are OK
Clouds: unknown
Weather: no significant weather observed at this time

METAR text: LHBP 190900Z 06005KT 010V120 CAVOK 22/14 Q1022 NOSIG
Conditions at: LHBP (BUDAPEST/FERIHEG, HU) observed 0900 UTC 19 September 2018
Temperature: 22.0°C (72°F)
Dewpoint: 14.0°C (57°F) [RH = 60%]
Pressure (altimeter): 30.18 inches Hg (1022.0 mb)
Winds: from the ENE (60 degrees) at 6 MPH (5 knots; 2.6 m/s)
Visibility: 6 or more miles (10+ km)
Ceiling: ceiling and visibility are OK
Clouds: unknown
Weather: no significant weather observed at this time

Forecast for: LHBP (BUDAPEST/FERIHEG, HU)
Text: TAF LHBP 190515Z 1906/2006 VRB03KT CAVOK
Forecast period: 0600 UTC 19 September 2018 to 0600 UTC 20 September 2018
Forecast type: FROM: standard forecast or significant change
Winds: variable direction winds at 3 MPH (3 knots; 1.5 m/s)
Visibility: 6 or more miles 10+ km)
Ceiling: unknown
Clouds: missing
Weather: NSW  (no significant weather)